createdAt,value
2018-12-01T00:00:21.984Z,81.07
2018-12-01T00:02:50.400Z,144.70
2018-12-01T00:05:18.625Z,86.43
2018-12-01T00:07:47.185Z,53.00
2018-12-01T00:10:15.604Z,44.50
2018-12-01T00:12:43.777Z,94.77
2018-12-01T00:15:32.521Z,50.67
2018-12-01T00:18:00.716Z,50.57
2018-12-01T00:20:33.531Z,73.83
2018-12-01T00:23:01.729Z,102.17
2018-12-01T00:25:29.967Z,42.23
2018-12-01T00:27:58.180Z,97.57
2018-12-01T00:30:26.389Z,61.57
2018-12-01T00:32:55.701Z,86.40
2018-12-01T00:35:24.120Z,65.83
2018-12-01T00:37:52.345Z,42.63
2018-12-01T00:40:21.257Z,66.43
2018-12-01T00:42:49.718Z,109.33
2018-12-01T00:45:48.828Z,56.73
2018-12-01T00:48:17.227Z,42.13
2018-12-01T00:50:45.448Z,44.80
2018-12-01T00:53:13.638Z,97.70
2018-12-01T00:55:42.246Z,39.20
2018-12-01T00:58:11.300Z,109.27
2018-12-01T01:00:39.504Z,43.33
2018-12-01T01:03:07.965Z,38.90
2018-12-01T01:05:36.228Z,41.77
2018-12-01T01:08:04.525Z,40.97
2018-12-01T01:10:34.638Z,40.00
2018-12-01T01:13:02.023Z,40.57
2018-12-01T01:15:30.262Z,43.57
2018-12-01T01:17:58.453Z,39.10
2018-12-01T01:20:26.678Z,34.93
2018-12-01T01:22:54.879Z,68.90
2018-12-01T01:25:23.032Z,81.17
2018-12-01T01:27:51.223Z,37.37
2018-12-01T01:30:23.721Z,110.33
2018-12-01T01:32:58.050Z,96.67
2018-12-01T01:35:26.265Z,100.40
2018-12-01T01:37:54.508Z,110.50
2018-12-01T01:40:22.988Z,65.27
2018-12-01T01:42:51.178Z,115.13
2018-12-01T01:45:19.684Z,133.50
2018-12-01T01:47:47.993Z,99.30
2018-12-01T01:50:20.209Z,35.93
2018-12-01T01:52:48.534Z,45.70
2018-12-01T01:55:17.428Z,67.83
2018-12-01T01:57:45.958Z,53.37
2018-12-01T02:00:16.793Z,91.00
2018-12-01T02:02:50.967Z,30.40
2018-12-01T02:05:24.173Z,100.33
2018-12-01T02:07:58.964Z,111.60
2018-12-01T02:10:27.190Z,76.50
2018-12-01T02:12:55.370Z,124.17
2018-12-01T02:17:58.758Z,129.00
2018-12-01T02:20:26.937Z,63.60
2018-12-01T02:22:55.381Z,77.13
2018-12-01T02:25:23.648Z,111.40
2018-12-01T02:27:52.497Z,51.90
2018-12-01T02:30:21.366Z,26.73
2018-12-01T02:32:49.846Z,27.47
2018-12-01T02:35:20.514Z,31.50
2018-12-01T02:37:48.723Z,31.53
2018-12-01T02:40:17.664Z,80.30
2018-12-01T02:42:45.969Z,30.60
2018-12-01T02:45:25.545Z,61.97
2018-12-01T02:47:53.837Z,42.43
2018-12-01T02:50:25.686Z,56.63
2018-12-01T02:52:54.879Z,78.07
2018-12-01T02:55:23.060Z,107.60
2018-12-01T02:57:51.547Z,71.80
2018-12-01T03:00:19.820Z,65.17
2018-12-01T03:02:48.025Z,67.80
2018-12-01T03:05:16.260Z,91.23
2018-12-01T03:07:44.479Z,75.93
2018-12-01T03:10:13.617Z,37.37
2018-12-01T03:12:41.808Z,79.13
2018-12-01T03:15:11.753Z,57.13
2018-12-01T03:17:39.980Z,142.47
2018-12-01T03:20:10.553Z,153.10
2018-12-01T03:22:38.761Z,146.90
2018-12-01T03:25:08.089Z,61.23
2018-12-01T03:27:36.994Z,105.87
2018-12-01T03:30:09.457Z,33.63
2018-12-01T03:32:38.506Z,161.77
2018-12-01T03:35:08.289Z,166.00
2018-12-01T03:37:36.479Z,159.17
2018-12-01T03:40:05.865Z,61.13
2018-12-01T03:42:34.085Z,118.63
2018-12-01T03:45:02.398Z,114.40
2018-12-01T03:47:30.580Z,65.83
2018-12-01T03:49:58.757Z,42.30
2018-12-01T03:52:27.223Z,68.87
2018-12-01T03:54:55.382Z,94.30
2018-12-01T03:57:23.639Z,65.37
2018-12-01T03:59:51.844Z,39.60
2018-12-01T04:02:20.072Z,33.13
2018-12-01T04:04:48.264Z,30.53
2018-12-01T04:07:16.447Z,27.50
2018-12-01T04:09:44.654Z,78.50
2018-12-01T04:12:13.233Z,46.20
2018-12-01T04:14:41.400Z,30.87
2018-12-01T04:17:09.828Z,68.43
2018-12-01T04:19:38.062Z,40.13
2018-12-01T04:22:06.487Z,41.90
2018-12-01T04:24:34.686Z,31.07
2018-12-01T04:27:02.932Z,181.70
2018-12-01T04:29:31.177Z,168.90
2018-12-01T04:31:59.361Z,32.87
2018-12-01T04:34:27.591Z,85.97
2018-12-01T04:36:55.793Z,182.13
2018-12-01T04:39:26.099Z,47.27
2018-12-01T04:41:54.327Z,92.60
2018-12-01T04:44:22.498Z,65.73
2018-12-01T04:46:50.653Z,30.93
2018-12-01T04:49:18.840Z,36.23
2018-12-01T04:51:47.223Z,182.93
2018-12-01T04:54:16.121Z,187.47
2018-12-01T04:56:44.326Z,31.77
2018-12-01T04:59:13.028Z,131.03
2018-12-01T05:01:41.320Z,142.93
2018-12-01T05:04:09.541Z,100.87
2018-12-01T05:06:37.793Z,35.73
2018-12-01T05:09:08.440Z,43.67
2018-12-01T05:11:36.676Z,28.93
2018-12-01T05:14:04.889Z,44.40
2018-12-01T05:16:33.324Z,45.60
2018-12-01T05:19:01.496Z,71.53
2018-12-01T05:21:29.709Z,21.70
2018-12-01T05:23:57.905Z,74.83
2018-12-01T05:26:26.106Z,38.93
2018-12-01T05:28:55.389Z,36.20
2018-12-01T05:31:23.572Z,25.87
2018-12-01T05:33:51.733Z,209.17
2018-12-01T05:36:20.297Z,82.10
2018-12-01T05:38:48.504Z,46.73
2018-12-01T05:41:17.268Z,27.00
2018-12-01T05:43:45.534Z,27.50
2018-12-01T05:46:13.684Z,58.37
2018-12-01T05:48:42.167Z,23.93
2018-12-01T05:51:10.344Z,29.00
2018-12-01T05:53:38.546Z,93.13
2018-12-01T05:56:06.737Z,36.77
2018-12-01T05:58:34.940Z,36.27
2018-12-01T06:01:03.153Z,23.93
2018-12-01T06:03:31.388Z,20.70
2018-12-01T06:05:59.623Z,25.10
2018-12-01T06:08:27.768Z,40.73
2018-12-01T06:10:55.933Z,36.83
2018-12-01T06:13:24.121Z,37.53
2018-12-01T06:15:52.338Z,43.23
2018-12-01T06:18:20.544Z,33.17
2018-12-01T06:20:48.740Z,48.53
2018-12-01T06:23:17.675Z,54.40
2018-12-01T06:25:45.861Z,43.30
2018-12-01T06:28:14.067Z,52.60
2018-12-01T06:30:42.349Z,52.47
2018-12-01T06:33:10.547Z,37.73
2018-12-01T06:35:38.801Z,43.57
2018-12-01T06:38:07.113Z,33.23
2018-12-01T06:40:35.376Z,33.80
2018-12-01T06:43:03.593Z,49.27
2018-12-01T06:45:31.809Z,66.67
2018-12-01T06:48:00.047Z,104.63
2018-12-01T06:50:28.204Z,91.93
2018-12-01T06:52:56.390Z,76.80
2018-12-01T06:55:24.614Z,116.07
2018-12-01T06:57:53.704Z,105.17
2018-12-01T07:00:23.906Z,101.73
2018-12-01T07:02:52.896Z,83.57
2018-12-01T07:05:21.080Z,66.00
2018-12-01T07:07:49.305Z,161.00
2018-12-01T07:10:19.550Z,116.93
2018-12-01T07:12:50.883Z,195.40
2018-12-01T07:15:38.193Z,84.77
2018-12-01T07:18:17.800Z,109.00
2018-12-01T07:20:46.308Z,321.70
2018-12-01T07:23:14.478Z,162.33
2018-12-01T07:25:42.721Z,245.73
2018-12-01T07:28:10.944Z,224.80
2018-12-01T07:30:39.160Z,327.20
2018-12-01T07:33:07.410Z,295.83
2018-12-01T07:35:35.689Z,136.90
2018-12-01T07:38:03.896Z,99.27
2018-12-01T07:40:32.317Z,259.33
2018-12-01T07:43:00.603Z,128.13
2018-12-01T07:45:28.797Z,99.67
2018-12-01T07:47:56.983Z,108.60
2018-12-01T07:50:25.393Z,306.73
2018-12-01T07:52:55.086Z,96.70
2018-12-01T07:55:23.312Z,97.90
2018-12-01T07:57:51.572Z,226.47
2018-12-01T08:00:19.755Z,119.60
2018-12-01T08:02:49.366Z,92.07
2018-12-01T08:05:17.736Z,170.33
2018-12-01T08:07:45.986Z,138.23
2018-12-01T08:10:16.454Z,180.53
2018-12-01T08:12:45.100Z,359.00
2018-12-01T08:15:15.142Z,332.00
2018-12-01T08:17:43.416Z,261.53
2018-12-01T08:20:12.543Z,206.93
2018-12-01T08:22:40.861Z,166.37
2018-12-01T08:25:14.300Z,163.90
2018-12-01T08:27:42.543Z,177.33
2018-12-01T08:30:14.368Z,139.73
2018-12-01T08:32:43.052Z,171.27
2018-12-01T08:35:11.269Z,132.60
2018-12-01T08:37:44.596Z,143.23
2018-12-01T08:40:14.102Z,153.13
2018-12-01T08:42:42.386Z,137.33
2018-12-01T08:45:11.118Z,138.33
2018-12-01T08:47:40.469Z,117.83
2018-12-01T08:50:11.960Z,113.17
2018-12-01T08:52:42.126Z,106.90
2018-12-01T08:55:13.244Z,88.43
2018-12-01T08:57:41.471Z,81.63
2018-12-01T09:00:11.540Z,75.63
2018-12-01T09:02:39.752Z,69.57
2018-12-01T09:05:08.372Z,66.67
2018-12-01T09:07:36.758Z,56.97
2018-12-01T09:10:06.884Z,54.90
2018-12-01T09:12:35.078Z,56.47
2018-12-01T09:15:03.517Z,49.50
2018-12-01T09:17:31.917Z,48.40
2018-12-01T09:20:00.156Z,38.57
2018-12-01T09:22:28.342Z,43.97
2018-12-01T09:24:56.545Z,36.87
2018-12-01T09:27:24.730Z,43.60
2018-12-01T09:29:52.952Z,37.90
2018-12-01T09:32:21.153Z,34.30
2018-12-01T09:34:49.384Z,39.17
2018-12-01T09:37:17.704Z,33.77
2018-12-01T09:39:45.952Z,33.43
2018-12-01T09:42:14.136Z,36.80
2018-12-01T09:44:44.369Z,37.87
2018-12-01T09:47:12.602Z,40.03
2018-12-01T09:49:40.806Z,37.47
2018-12-01T09:52:09.034Z,36.70
2018-12-01T09:54:37.250Z,40.57
2018-12-01T09:57:05.469Z,41.47
2018-12-01T09:59:33.649Z,39.77
2018-12-01T10:02:01.953Z,34.00
2018-12-01T10:04:30.158Z,33.83
2018-12-01T10:06:58.323Z,37.40
2018-12-01T10:09:26.512Z,39.17
2018-12-01T10:11:54.728Z,36.00
2018-12-01T10:14:23.488Z,36.10
2018-12-01T10:16:52.131Z,32.63
2018-12-01T10:19:20.340Z,32.30
2018-12-01T10:21:48.572Z,27.27
2018-12-01T10:24:16.836Z,29.83
2018-12-01T10:26:45.285Z,28.57
2018-12-01T10:29:13.516Z,28.83
2018-12-01T10:31:41.793Z,29.80
2018-12-01T10:34:10.472Z,32.27
2018-12-01T10:36:41.264Z,26.33
2018-12-01T10:39:09.721Z,29.13
2018-12-01T10:41:37.916Z,31.60
2018-12-01T10:44:06.173Z,26.10
2018-12-01T10:46:34.398Z,28.93
2018-12-01T10:49:02.744Z,25.73
2018-12-01T10:51:31.180Z,27.03
2018-12-01T10:53:59.347Z,31.70
2018-12-01T10:56:27.592Z,28.73
2018-12-01T10:58:55.933Z,25.83
2018-12-01T11:01:28.740Z,23.97
2018-12-01T11:03:57.019Z,24.70
2018-12-01T11:06:25.268Z,28.13
2018-12-01T11:08:53.725Z,29.63
2018-12-01T11:11:21.921Z,29.33
2018-12-01T11:13:51.010Z,26.40
2018-12-01T11:16:19.940Z,19.03
2018-12-01T11:18:48.313Z,23.77
2018-12-01T11:21:16.508Z,23.47
2018-12-01T11:23:44.686Z,19.63
2018-12-01T11:26:13.138Z,16.33
2018-12-01T11:28:41.382Z,20.90
2018-12-01T11:31:09.665Z,18.27
2018-12-01T11:33:37.888Z,16.87
2018-12-01T11:36:06.081Z,16.63
2018-12-01T11:38:34.735Z,20.37
2018-12-01T11:41:02.976Z,15.30
2018-12-01T11:43:31.268Z,18.83
2018-12-01T11:45:59.456Z,15.07
2018-12-01T11:48:27.700Z,17.77
2018-12-01T11:50:55.955Z,18.63
2018-12-01T11:53:24.232Z,14.03
2018-12-01T11:55:52.392Z,14.67
2018-12-01T11:58:20.640Z,15.80
2018-12-01T12:00:49.841Z,16.00
2018-12-01T12:03:18.077Z,23.53
2018-12-01T12:05:46.561Z,17.93
2018-12-01T12:08:20.916Z,16.53
2018-12-01T12:10:49.140Z,14.43
2018-12-01T12:13:17.461Z,14.00
2018-12-01T12:15:45.621Z,16.90
2018-12-01T12:18:14.013Z,13.97
2018-12-01T12:20:42.159Z,11.90
2018-12-01T12:23:10.361Z,13.87
2018-12-01T12:25:38.589Z,17.37
2018-12-01T12:28:06.940Z,17.73
2018-12-01T12:30:35.196Z,9.97
2018-12-01T12:33:03.387Z,13.00
2018-12-01T12:35:31.869Z,11.73
2018-12-01T12:38:00.069Z,12.60
2018-12-01T12:40:28.368Z,14.63
2018-12-01T12:42:57.718Z,13.77
2018-12-01T12:45:25.904Z,13.03
2018-12-01T12:47:54.141Z,12.57
2018-12-01T12:50:22.336Z,14.40
2018-12-01T12:52:52.433Z,17.37
2018-12-01T12:55:21.922Z,16.13
2018-12-01T12:57:50.112Z,16.80
2018-12-01T13:00:20.249Z,15.50
2018-12-01T13:03:08.924Z,14.17
2018-12-01T13:05:40.360Z,14.27
2018-12-01T13:08:09.541Z,16.43
2018-12-01T13:10:37.752Z,11.00
2018-12-01T13:13:06.643Z,14.80
2018-12-01T13:15:37.096Z,10.63
2018-12-01T13:18:07.034Z,10.53
2018-12-01T13:20:35.276Z,11.80
2018-12-01T13:23:04.124Z,17.83
2018-12-01T13:25:32.322Z,10.73
2018-12-01T13:28:17.962Z,9.70
2018-12-01T13:30:47.897Z,11.03
2018-12-01T13:33:16.115Z,7.07
2018-12-01T13:35:44.316Z,11.77
2018-12-01T13:38:12.516Z,9.37
2018-12-01T13:40:40.957Z,4.87
2018-12-01T13:43:09.160Z,5.63
2018-12-01T13:45:37.731Z,5.10
2018-12-01T13:48:07.528Z,5.23
2018-12-01T13:50:35.772Z,7.50
2018-12-01T13:53:08.112Z,4.40
2018-12-01T13:55:36.261Z,6.00
2018-12-01T13:58:05.025Z,9.67
2018-12-01T14:00:33.237Z,7.33
2018-12-01T14:03:02.307Z,5.03
2018-12-01T14:05:30.515Z,4.87
2018-12-01T14:07:58.717Z,4.70
2018-12-01T14:10:28.144Z,6.47
2018-12-01T14:13:00.951Z,8.60
2018-12-01T14:15:29.207Z,11.40
2018-12-01T14:17:57.524Z,8.23
2018-12-01T14:20:25.701Z,7.67
2018-12-01T14:22:53.905Z,8.40
2018-12-01T14:25:22.632Z,10.37
2018-12-01T14:35:36.816Z,9.70
2018-12-01T14:38:10.064Z,8.37
2018-12-01T14:40:45.108Z,11.17
2018-12-01T14:43:13.602Z,12.43
2018-12-01T14:45:42.567Z,9.40
2018-12-01T14:48:10.807Z,11.87
2018-12-01T14:50:38.968Z,8.90
2018-12-01T14:53:08.324Z,14.33
2018-12-01T14:55:41.797Z,9.83
2018-12-01T14:58:10.032Z,10.87
2018-12-01T15:00:38.399Z,11.47
2018-12-01T15:03:07.374Z,11.83
2018-12-01T15:05:35.682Z,12.70
2018-12-01T15:08:03.913Z,14.70
2018-12-01T15:10:32.212Z,10.10
2018-12-01T15:13:00.708Z,12.83
2018-12-01T15:15:28.948Z,11.77
2018-12-01T15:17:57.190Z,9.17
2018-12-01T15:20:26.131Z,10.77
2018-12-01T15:22:56.304Z,9.77
2018-12-01T15:25:26.463Z,11.23
2018-12-01T15:27:54.736Z,9.77
2018-12-01T15:30:26.717Z,8.77
2018-12-01T15:33:07.381Z,12.30
2018-12-01T15:35:36.408Z,10.20
2018-12-01T15:38:04.876Z,8.23
2018-12-01T15:40:33.226Z,13.60
2018-12-01T15:43:01.480Z,9.80
2018-12-01T15:45:30.135Z,11.93
2018-12-01T15:47:58.415Z,13.40
2018-12-01T15:50:26.630Z,9.50
2018-12-01T15:52:56.213Z,9.63
2018-12-01T15:55:24.634Z,10.50
2018-12-01T15:57:53.106Z,7.70
2018-12-01T16:00:23.528Z,9.17
2018-12-01T16:02:51.805Z,8.13
2018-12-01T16:05:20.793Z,6.87
2018-12-01T16:07:50.277Z,11.23
2018-12-01T16:10:19.981Z,15.33
2018-12-01T16:12:50.768Z,11.97
2018-12-01T16:15:25.345Z,15.93
2018-12-01T16:17:53.592Z,6.10
2018-12-01T16:20:22.704Z,14.17
2018-12-01T16:22:50.885Z,9.87
2018-12-01T16:25:20.405Z,10.87
2018-12-01T16:27:48.759Z,9.23
2018-12-01T16:30:26.892Z,10.80
2018-12-01T16:32:56.363Z,13.33
2018-12-01T16:35:24.594Z,10.67
2018-12-01T16:37:53.165Z,10.23
2018-12-01T16:40:24.408Z,9.70
2018-12-01T16:42:53.117Z,12.80
2018-12-01T16:45:21.373Z,10.67
2018-12-01T16:47:49.625Z,11.47
2018-12-01T16:50:22.693Z,15.90
2018-12-01T16:52:50.932Z,13.73
2018-12-01T16:55:19.116Z,15.87
2018-12-01T16:57:47.399Z,11.60
2018-12-01T17:00:17.932Z,13.30
2018-12-01T17:02:48.245Z,17.87
2018-12-01T17:05:17.615Z,18.53
2018-12-01T17:07:46.273Z,17.77
2018-12-01T17:10:15.636Z,14.43
2018-12-01T17:12:44.446Z,15.50
2018-12-01T17:15:14.859Z,16.50
2018-12-01T17:17:43.085Z,12.13
2018-12-01T17:20:14.242Z,16.53
2018-12-01T17:22:43.744Z,14.03
2018-12-01T17:25:13.075Z,16.20
2018-12-01T17:27:42.187Z,14.60
2018-12-01T17:30:11.984Z,18.80
2018-12-01T17:32:40.215Z,14.13
2018-12-01T17:35:13.244Z,17.07
2018-12-01T17:37:42.465Z,9.97
2018-12-01T17:40:32.117Z,13.67
2018-12-01T17:43:00.528Z,12.93
2018-12-01T17:45:29.121Z,12.70
2018-12-01T17:47:57.424Z,15.83
2018-12-01T17:50:25.744Z,10.63
2018-12-01T17:52:56.141Z,10.77
2018-12-01T17:55:26.006Z,17.50
2018-12-01T17:57:54.800Z,13.67
2018-12-01T18:00:25.393Z,13.50
2018-12-01T18:02:55.848Z,14.00
2018-12-01T18:05:28.868Z,19.03
2018-12-01T18:07:57.108Z,19.10
2018-12-01T18:10:25.774Z,15.37
2018-12-01T18:12:53.956Z,12.97
2018-12-01T18:15:22.181Z,18.97
2018-12-01T18:17:51.745Z,17.60
2018-12-01T18:20:20.828Z,17.60
2018-12-01T18:22:52.400Z,19.67
2018-12-01T18:25:20.636Z,16.73
2018-12-01T18:27:49.842Z,20.43
2018-12-01T18:30:22.470Z,20.27
2018-12-01T18:32:51.064Z,19.10
2018-12-01T18:35:19.309Z,16.37
2018-12-01T18:37:47.644Z,21.40
2018-12-01T18:40:19.057Z,17.93
2018-12-01T18:42:48.296Z,22.40
2018-12-01T18:45:17.799Z,18.43
2018-12-01T18:47:46.026Z,17.13
2018-12-01T18:50:17.210Z,19.70
2018-12-01T18:53:05.001Z,19.03
2018-12-01T18:55:34.634Z,16.10
2018-12-01T18:58:02.828Z,16.87
2018-12-01T19:00:36.745Z,13.80
2018-12-01T19:03:05.049Z,19.53
2018-12-01T19:05:33.593Z,16.37
2018-12-01T19:08:01.809Z,12.43
2018-12-01T19:10:30.004Z,19.33
2018-12-01T19:12:58.237Z,19.40
2018-12-01T19:15:26.434Z,18.13
2018-12-01T19:17:54.764Z,18.77
2018-12-01T19:20:22.944Z,16.07
2018-12-01T19:22:51.182Z,13.30
2018-12-01T19:25:21.327Z,17.97
2018-12-01T19:27:50.677Z,17.53
2018-12-01T19:30:19.676Z,14.10
2018-12-01T19:33:01.230Z,22.23
2018-12-01T19:35:30.266Z,14.90
2018-12-01T19:37:58.467Z,13.93
2018-12-01T19:40:28.756Z,15.17
2018-12-01T19:42:56.430Z,19.57
2018-12-01T19:45:24.679Z,13.27
2018-12-01T19:47:52.874Z,19.07
2018-12-01T19:50:36.929Z,16.97
2018-12-01T19:53:22.377Z,19.73
2018-12-01T19:55:51.958Z,17.37
2018-12-01T19:58:21.768Z,18.63
2018-12-01T20:00:52.072Z,13.33
2018-12-01T20:03:21.369Z,17.50
2018-12-01T20:05:51.772Z,13.30
2018-12-01T20:08:20.826Z,19.07
2018-12-01T20:11:05.858Z,15.30
2018-12-01T20:13:40.773Z,14.90
2018-12-01T20:17:17.568Z,14.63
2018-12-01T20:19:45.758Z,15.87
2018-12-01T20:22:13.989Z,13.00
2018-12-01T20:24:42.220Z,12.03
2018-12-01T20:27:10.475Z,11.83
2018-12-01T20:29:38.685Z,17.03
2018-12-01T20:32:06.893Z,17.53
2018-12-01T20:34:35.861Z,12.20
2018-12-01T20:37:07.545Z,8.07
2018-12-01T20:39:38.466Z,15.27
2018-12-01T20:42:06.725Z,10.23
2018-12-01T20:44:34.950Z,11.80
2018-12-01T20:47:03.364Z,13.30
2018-12-01T20:49:31.892Z,10.50
2018-12-01T20:52:00.426Z,13.33
2018-12-01T20:54:36.474Z,6.80
2018-12-01T20:57:15.141Z,7.07
2018-12-01T20:59:43.344Z,11.63
2018-12-01T21:02:11.565Z,12.87
2018-12-01T21:04:40.372Z,12.23
2018-12-01T21:07:08.582Z,8.83
2018-12-01T21:09:37.436Z,7.87
2018-12-01T21:12:07.312Z,9.23
2018-12-01T21:14:35.593Z,8.40
2018-12-01T21:17:03.770Z,14.33
2018-12-01T21:19:32.093Z,13.73
2018-12-01T21:22:00.318Z,7.80
2018-12-01T21:24:30.105Z,10.53
2018-12-01T21:26:58.318Z,8.93
2018-12-01T21:29:26.521Z,12.47
2018-12-01T21:31:54.716Z,11.03
2018-12-01T21:34:23.058Z,6.93
2018-12-01T21:36:51.230Z,8.97
2018-12-01T21:39:19.472Z,11.10
2018-12-01T21:41:48.773Z,5.97
2018-12-01T21:44:17.114Z,6.30
2018-12-01T21:46:45.454Z,11.20
2018-12-01T21:49:14.113Z,6.07
2018-12-01T21:51:42.587Z,6.33
2018-12-01T21:54:10.790Z,7.37
2018-12-01T21:56:39.200Z,6.73
2018-12-01T21:59:07.629Z,3.70
2018-12-01T22:01:35.852Z,4.10
2018-12-01T22:04:04.114Z,4.07
2018-12-01T22:09:08.205Z,6.17
2018-12-01T22:11:36.430Z,8.03
2018-12-01T22:14:04.912Z,5.47
2018-12-01T22:16:33.262Z,5.57
2018-12-01T22:19:01.517Z,5.40
2018-12-01T22:21:30.269Z,7.17
2018-12-01T22:23:58.838Z,7.47
2018-12-01T22:26:27.008Z,4.90
2018-12-01T22:28:55.184Z,6.90
2018-12-01T22:31:23.431Z,5.03
2018-12-01T22:33:51.873Z,5.03
2018-12-01T22:36:20.070Z,6.07
2018-12-01T22:38:48.282Z,3.80
2018-12-01T22:41:16.476Z,3.60
2018-12-01T22:43:44.652Z,7.30
2018-12-01T22:46:12.881Z,4.37
2018-12-01T22:48:41.077Z,7.33
2018-12-01T22:51:09.301Z,6.70
2018-12-01T22:53:37.596Z,4.37
2018-12-01T22:56:08.060Z,5.40
2018-12-01T22:58:36.217Z,4.83
2018-12-01T23:01:04.400Z,6.33
2018-12-01T23:03:34.512Z,12.40
2018-12-01T23:06:03.685Z,4.90
2018-12-01T23:08:31.998Z,6.07
2018-12-01T23:11:00.211Z,9.20
2018-12-01T23:13:28.381Z,6.00
2018-12-01T23:15:56.581Z,6.03
2018-12-01T23:18:25.676Z,4.63
2018-12-01T23:20:53.897Z,5.97
2018-12-01T23:23:22.077Z,6.00
2018-12-01T23:25:50.310Z,9.67
2018-12-01T23:28:18.486Z,8.30
2018-12-01T23:30:51.288Z,5.57
2018-12-01T23:33:21.762Z,7.93
2018-12-01T23:35:49.949Z,8.77
2018-12-01T23:38:18.713Z,8.53
2018-12-01T23:40:47.044Z,7.07
2018-12-01T23:43:15.235Z,9.37
2018-12-01T23:45:44.096Z,5.33
2018-12-01T23:48:12.277Z,4.97
2018-12-01T23:50:43.072Z,4.17
2018-12-01T23:53:12.675Z,7.87
2018-12-01T23:55:40.858Z,7.93
2018-12-01T23:58:09.051Z,5.07
